Time;durP1;ratioP1;P1;durP2;ratioP2;P2;SDS_P1;SDS_P2;PMS_P1;PMS_P2;Temp;Humidity;BMP_temperature;BMP_pressure;BME280_temperature;BME280_humidity;BME280_pressure;Samples;Min_cycle;Max_cycle;Signal;HPM_P1;HPM_P2
2021/11/12 00:12:27;;;;;;;54.10;29.38;;;3.20;99.90;;;;;;4997710;28;20216;-68
2021/11/12 00:14:55;;;;;;;52.10;27.60;;;3.20;99.90;;;;;;5006931;28;20532;-68
2021/11/12 00:17:29;;;;;;;46.45;27.15;;;3.30;99.90;;;;;;5005863;28;20044;-67
2021/11/12 00:19:57;;;;;;;45.85;26.88;;;3.30;99.90;;;;;;4985348;28;20079;-68
2021/11/12 00:22:26;;;;;;;45.45;26.42;;;3.30;99.90;;;;;;5007187;28;20043;-68
2021/11/12 00:24:55;;;;;;;43.30;25.13;;;3.40;99.90;;;;;;4992136;28;20492;-69
2021/11/12 00:27:24;;;;;;;51.25;26.88;;;3.30;99.90;;;;;;4989592;28;20039;-67
2021/11/12 00:35:16;;;;;;;46.95;25.35;;;3.30;99.90;;;;;;4989576;28;20050;-68
2021/11/12 00:37:55;;;;;;;43.90;24.98;;;3.30;99.90;;;;;;4984330;28;20497;-68
2021/11/12 00:43:15;;;;;;;45.22;25.17;;;3.30;99.90;;;;;;4989999;28;20042;-68
2021/11/12 00:45:49;;;;;;;42.67;25.23;;;3.30;99.90;;;;;;4991155;28;20353;-68
2021/11/12 00:48:20;;;;;;;45.40;25.65;;;3.30;99.90;;;;;;4998041;28;20047;-68
2021/11/12 00:55:45;;;;;;;39.28;23.25;;;3.30;99.90;;;;;;4987015;28;20054;-67
2021/11/12 00:58:15;;;;;;;35.53;21.92;;;3.30;99.90;;;;;;4990600;28;20077;-67
2021/11/12 01:00:44;;;;;;;32.15;21.13;;;3.30;99.90;;;;;;4974840;28;20053;-68
2021/11/12 01:03:12;;;;;;;33.83;21.20;;;3.20;99.90;;;;;;5007543;28;20555;-68
2021/11/12 01:05:40;;;;;;;32.13;20.55;;;3.20;99.90;;;;;;5008258;28;20045;-67
2021/11/12 01:08:08;;;;;;;31.45;20.30;;;3.20;99.90;;;;;;5008849;28;20041;-68
2021/11/12 01:10:35;;;;;;;31.85;20.25;;;3.10;99.90;;;;;;4996780;28;20054;-67
2021/11/12 01:13:03;;;;;;;33.33;20.73;;;3.10;99.90;;;;;;5001789;28;20409;-69
2021/11/12 01:15:31;;;;;;;30.63;21.08;;;3.10;99.90;;;;;;4995245;28;20054;-68
2021/11/12 01:17:58;;;;;;;33.00;20.63;;;3.10;99.90;;;;;;4997348;28;20042;-68
2021/11/12 01:20:26;;;;;;;32.20;20.70;;;3.10;99.90;;;;;;5001125;28;20038;-68
2021/11/12 01:22:53;;;;;;;29.20;19.85;;;3.10;99.90;;;;;;4991134;28;20405;-68
2021/11/12 01:25:22;;;;;;;31.02;19.05;;;3.00;99.90;;;;;;5001822;28;20038;-68
2021/11/12 01:27:50;;;;;;;29.90;18.92;;;3.00;99.90;;;;;;4990177;28;20134;-68
2021/11/12 01:30:19;;;;;;;29.75;19.42;;;2.90;99.90;;;;;;4997294;28;20068;-68
2021/11/12 01:32:47;;;;;;;31.65;20.33;;;2.90;99.90;;;;;;4990042;28;20093;-68
2021/11/12 01:35:17;;;;;;;35.08;20.50;;;2.90;99.90;;;;;;4995683;28;20404;-68
2021/11/12 01:37:45;;;;;;;33.00;20.50;;;2.90;99.90;;;;;;4997708;28;20061;-68
2021/11/12 01:40:22;;;;;;;32.45;20.38;;;2.90;99.90;;;;;;5002533;28;20050;-68
2021/11/12 01:42:56;;;;;;;34.08;21.20;;;2.80;99.90;;;;;;5001984;28;20458;-67
2021/11/12 01:48:29;;;;;;;33.80;21.25;;;2.80;99.90;;;;;;5001769;28;20395;-68
2021/11/12 01:53:29;;;;;;;38.60;22.25;;;2.70;99.90;;;;;;4988687;28;20101;-68
2021/11/12 02:01:42;;;;;;;39.58;23.50;;;2.70;99.90;;;;;;4953455;29;20509;-68
2021/11/12 02:04:11;;;;;;;34.53;20.80;;;2.70;99.90;;;;;;4939733;29;20039;-68
2021/11/12 02:06:39;;;;;;;35.08;21.98;;;2.70;99.90;;;;;;4949145;29;20521;-68
2021/11/12 02:09:16;;;;;;;41.10;24.75;;;2.70;99.90;;;;;;4937512;29;20154;-69
2021/11/12 02:11:45;;;;;;;38.05;23.00;;;2.70;99.90;;;;;;4935172;29;20062;-67
2021/11/12 02:14:16;;;;;;;38.08;22.48;;;2.70;99.90;;;;;;4947284;29;20503;-69
2021/11/12 02:16:54;;;;;;;34.80;19.95;;;2.70;99.90;;;;;;4920707;29;20048;-69
2021/11/12 02:19:22;;;;;;;36.15;21.52;;;2.70;99.90;;;;;;4941602;29;20560;-68
2021/11/12 02:22:06;;;;;;;35.30;22.30;;;2.70;99.90;;;;;;4934261;29;20562;-69
2021/11/12 02:24:38;;;;;;;38.65;22.38;;;2.70;99.90;;;;;;4934550;29;20106;-69
2021/11/12 02:27:07;;;;;;;;;;;2.60;99.90;;;;;;4919564;29;20040;-68
2021/11/12 02:29:37;;;;;;;37.13;21.15;;;2.60;99.90;;;;;;4934909;29;19923;-69
2021/11/12 02:32:20;;;;;;;37.58;22.33;;;2.60;99.90;;;;;;4935772;29;20154;-69
2021/11/12 02:34:51;;;;;;;35.25;20.50;;;2.70;99.90;;;;;;4937214;28;20392;-67
2021/11/12 02:37:23;;;;;;;34.90;21.33;;;2.70;99.90;;;;;;4981544;28;20034;-69
2021/11/12 02:39:52;;;;;;;35.55;20.35;;;2.70;99.90;;;;;;4984210;28;20049;-68
2021/11/12 02:42:21;;;;;;;35.88;21.08;;;2.70;99.90;;;;;;4983043;28;20490;-68
2021/11/12 02:44:48;;;;;;;35.55;21.98;;;2.70;99.90;;;;;;4992883;28;20065;-69
2021/11/12 02:47:17;;;;;;;32.20;20.10;;;2.80;99.90;;;;;;4993975;28;20481;-69
2021/11/12 02:49:46;;;;;;;35.25;20.58;;;2.80;99.90;;;;;;4992910;28;20118;-68
2021/11/12 02:52:17;;;;;;;34.00;20.13;;;2.80;99.90;;;;;;4999398;28;20053;-69
2021/11/12 02:54:45;;;;;;;34.20;20.13;;;2.80;99.90;;;;;;4993216;28;20049;-69
2021/11/12 02:57:13;;;;;;;34.38;20.13;;;2.80;99.90;;;;;;4993242;28;20568;-69
2021/11/12 02:59:40;;;;;;;32.25;20.02;;;2.80;99.90;;;;;;4992619;28;20054;-69
2021/11/12 03:02:08;;;;;;;38.83;22.35;;;2.80;99.90;;;;;;4984911;28;20030;-69
2021/11/12 03:04:36;;;;;;;32.67;20.35;;;2.80;99.90;;;;;;4986844;28;20187;-69
2021/11/12 03:07:03;;;;;;;37.88;20.35;;;2.80;99.90;;;;;;5007855;28;20050;-69
2021/11/12 03:09:33;;;;;;;36.58;20.67;;;2.80;99.90;;;;;;5001904;28;20053;-68
2021/11/12 03:12:02;;;;;;;35.67;21.88;;;2.80;99.90;;;;;;4994971;28;20516;-68
2021/11/12 03:14:30;;;;;;;39.20;22.38;;;2.80;99.90;;;;;;4993617;28;20053;-68
2021/11/12 03:16:57;;;;;;;34.30;19.58;;;2.80;99.90;;;;;;4994055;28;20046;-68
2021/11/12 03:19:27;;;;;;;30.33;17.27;;;2.80;99.90;;;;;;4994713;28;20062;-68
2021/11/12 03:22:04;;;;;;;32.05;18.15;;;2.80;99.90;;;;;;4994655;28;20050;-68
2021/11/12 03:24:46;;;;;;;28.15;17.02;;;2.80;99.90;;;;;;4994677;28;20405;-67
2021/11/12 03:47:11;;;;;;;22.42;14.20;;;2.70;99.90;;;;;;4989017;28;20464;-69
2021/11/12 04:00:46;;;;;;;22.92;14.80;;;2.60;99.90;;;;;;4988636;28;20039;-67
2021/11/12 04:03:30;;;;;;;24.75;15.18;;;2.60;99.90;;;;;;4981787;28;20090;-68
2021/11/12 05:50:34;;;;;;;22.48;14.13;;;3.10;99.90;;;;;;4911970;29;20055;-66
2021/11/12 05:55:48;;;;;;;26.70;16.55;;;3.20;99.90;;;;;;4912632;29;20055;-67
2021/11/12 05:58:15;;;;;;;25.08;15.48;;;3.20;99.90;;;;;;4912184;29;20076;-67
2021/11/12 06:00:43;;;;;;;26.00;16.08;;;3.20;99.90;;;;;;4912427;29;20391;-67
2021/11/12 06:03:10;;;;;;;23.27;14.63;;;3.30;99.90;;;;;;4911891;29;20151;-66
2021/11/12 06:05:37;;;;;;;22.75;14.80;;;3.30;99.90;;;;;;4937550;29;20057;-67
2021/11/12 06:08:05;;;;;;;23.15;14.18;;;3.30;99.90;;;;;;4946216;29;20039;-67
2021/11/12 06:10:32;;;;;;;25.35;15.68;;;3.30;99.90;;;;;;4962068;28;20485;-67
2021/11/12 06:12:59;;;;;;;26.75;14.85;;;3.30;99.90;;;;;;5003483;28;20038;-66
2021/11/12 06:15:27;;;;;;;26.08;15.77;;;3.30;99.90;;;;;;4982600;28;20517;-66
2021/11/12 06:17:54;;;;;;;21.67;14.23;;;3.30;99.90;;;;;;4994748;28;20058;-66
2021/11/12 06:20:21;;;;;;;24.73;14.45;;;3.30;99.90;;;;;;4999813;28;20573;-67
2021/11/12 06:22:51;;;;;;;22.13;13.70;;;3.30;99.90;;;;;;5001864;28;20486;-67
2021/11/12 06:25:20;;;;;;;22.52;13.32;;;3.30;99.90;;;;;;5009769;28;20153;-66
2021/11/12 06:27:48;;;;;;;22.27;14.27;;;3.30;99.90;;;;;;4985702;28;20042;-66
2021/11/12 06:30:15;;;;;;;22.02;13.77;;;3.30;99.90;;;;;;4987742;28;20049;-66
2021/11/12 06:32:44;;;;;;;22.77;13.07;;;3.30;99.90;;;;;;4981349;28;20039;-66
2021/11/12 06:35:12;;;;;;;20.70;12.32;;;3.30;99.90;;;;;;4997833;28;20062;-66
2021/11/12 06:37:39;;;;;;;19.40;13.38;;;3.30;99.90;;;;;;4979110;28;20043;-66
2021/11/12 06:40:07;;;;;;;19.35;12.40;;;3.30;99.90;;;;;;4980595;28;20046;-66
2021/11/12 06:42:38;;;;;;;22.52;14.00;;;3.30;99.90;;;;;;4980456;28;20053;-66
2021/11/12 06:50:38;;;;;;;22.17;12.38;;;3.40;99.90;;;;;;5020188;28;20038;-66
2021/11/12 06:53:06;;;;;;;21.23;12.60;;;3.50;99.90;;;;;;4996170;28;20062;-67
2021/11/12 06:55:33;;;;;;;21.90;12.88;;;3.50;99.90;;;;;;4997190;28;20053;-67
2021/11/12 06:58:01;;;;;;;19.08;12.05;;;3.50;99.90;;;;;;4988355;28;20061;-67
2021/11/12 07:00:28;;;;;;;19.52;12.25;;;3.60;99.90;;;;;;4981253;28;20054;-66
2021/11/12 07:02:57;;;;;;;19.23;12.15;;;3.60;99.90;;;;;;4981654;28;20043;-67
2021/11/12 07:05:24;;;;;;;19.15;12.32;;;3.60;99.90;;;;;;4981220;28;20486;-67
2021/11/12 07:07:51;;;;;;;18.73;12.70;;;3.60;99.90;;;;;;4992070;28;20053;-66
2021/11/12 07:10:18;;;;;;;23.17;13.20;;;3.60;99.90;;;;;;4987958;28;20446;-65
2021/11/12 07:12:46;;;;;;;19.08;12.20;;;3.50;99.90;;;;;;4997724;28;20054;-65
2021/11/12 07:15:14;;;;;;;17.27;11.05;;;3.50;99.90;;;;;;4986679;28;20129;-66
2021/11/12 07:17:42;;;;;;;20.75;13.52;;;3.50;99.90;;;;;;5002008;28;20077;-66
2021/11/12 07:20:09;;;;;;;19.52;11.80;;;3.50;99.90;;;;;;5008266;28;20819;-66
2021/11/12 07:22:37;;;;;;;19.40;12.05;;;3.40;99.90;;;;;;5002558;28;20041;-66
2021/11/12 07:25:05;;;;;;;21.63;13.57;;;3.40;99.90;;;;;;5006761;28;20053;-66
2021/11/12 07:27:33;;;;;;;21.25;13.18;;;3.50;99.90;;;;;;5005297;28;20038;-66
2021/11/12 07:30:14;;;;;;;20.80;12.90;;;3.60;99.90;;;;;;4994498;28;20057;-66
2021/11/12 07:32:44;;;;;;;20.23;12.55;;;3.60;99.90;;;;;;5003116;28;20060;-65
2021/11/12 07:35:15;;;;;;;20.55;11.82;;;3.50;99.90;;;;;;5017321;28;20048;-66
2021/11/12 07:37:42;;;;;;;19.50;11.63;;;3.50;99.90;;;;;;4998819;28;20046;-67
2021/11/12 07:40:17;;;;;;;19.40;11.70;;;3.50;99.90;;;;;;5000427;28;20070;-67
2021/11/12 07:43:16;;;;;;;19.13;12.10;;;3.50;99.90;;;;;;5004166;28;20057;-66
2021/11/12 07:45:51;;;;;;;20.55;12.20;;;3.50;99.90;;;;;;4983559;28;20065;-66
2021/11/12 07:48:19;;;;;;;20.60;11.60;;;3.50;99.90;;;;;;4987548;28;20046;-67
2021/11/12 07:50:46;;;;;;;18.67;11.25;;;3.50;99.90;;;;;;5007691;28;20133;-67
2021/11/12 07:53:13;;;;;;;19.98;11.80;;;3.60;99.90;;;;;;4987261;28;20047;-67
2021/11/12 07:55:41;;;;;;;18.58;11.80;;;3.60;99.90;;;;;;4990141;28;20043;-67
2021/11/12 07:58:08;;;;;;;22.60;12.57;;;3.60;99.90;;;;;;4997984;28;20108;-67
2021/11/12 08:00:35;;;;;;;21.88;11.73;;;3.70;99.90;;;;;;4993049;28;20349;-66
2021/11/12 08:03:03;;;;;;;19.00;11.68;;;3.70;99.90;;;;;;4999942;28;20037;-66
2021/11/12 08:05:36;;;;;;;20.25;12.25;;;3.80;99.90;;;;;;4999074;28;20042;-66
2021/11/12 08:08:08;;;;;;;21.50;13.13;;;3.80;99.90;;;;;;5001690;28;20481;-66
2021/11/12 08:10:46;;;;;;;22.48;13.18;;;3.80;99.90;;;;;;5003625;28;20034;-67
2021/11/12 08:13:24;;;;;;;20.08;12.25;;;3.80;99.90;;;;;;4998140;28;20485;-65
2021/11/12 08:16:23;;;;;;;21.27;12.10;;;3.80;99.90;;;;;;4992743;28;20058;-66
2021/11/12 08:19:09;;;;;;;25.17;12.00;;;3.80;99.90;;;;;;4994497;28;20088;-65
2021/11/12 08:21:43;;;;;;;21.52;12.30;;;3.80;99.90;;;;;;4990986;28;20137;-66
2021/11/12 08:24:33;;;;;;;21.73;12.95;;;3.80;99.90;;;;;;4989119;28;20034;-68
2021/11/12 08:34:57;;;;;;;23.77;13.25;;;4.10;99.90;;;;;;5002339;28;20076;-67
2021/11/12 08:42:37;;;;;;;23.27;12.68;;;4.20;99.90;;;;;;4986131;28;20435;-67
2021/11/12 08:45:11;;;;;;;20.67;12.75;;;4.20;99.90;;;;;;4989317;28;20057;-67
2021/11/12 08:47:40;;;;;;;22.00;13.65;;;4.30;99.90;;;;;;4992258;28;20046;-67
2021/11/12 08:50:14;;;;;;;21.52;12.95;;;4.30;99.90;;;;;;4995731;28;20041;-67
2021/11/12 08:52:43;;;;;;;21.83;13.00;;;4.30;99.90;;;;;;4995112;28;20081;-66
2021/11/12 08:55:11;;;;;;;22.80;13.70;;;4.30;99.90;;;;;;4995475;28;20132;-67
2021/11/12 08:57:39;;;;;;;25.33;13.35;;;4.20;99.90;;;;;;4997499;28;20034;-68
2021/11/12 09:00:09;;;;;;;23.70;13.38;;;4.20;99.90;;;;;;4997113;28;20122;-67
2021/11/12 09:02:37;;;;;;;20.60;12.30;;;4.20;99.90;;;;;;4990394;28;20047;-71
2021/11/12 09:05:04;;;;;;;22.50;12.98;;;4.20;99.90;;;;;;4983581;28;20464;-67
2021/11/12 09:07:33;;;;;;;22.38;12.68;;;4.30;99.90;;;;;;4991659;28;20137;-67
2021/11/12 09:10:00;;;;;;;20.52;12.18;;;4.40;99.90;;;;;;4997692;28;20038;-67
2021/11/12 09:12:29;;;;;;;22.00;13.02;;;4.50;99.90;;;;;;4996096;28;20046;-66
2021/11/12 09:14:59;;;;;;;22.55;13.02;;;4.50;99.90;;;;;;5006392;28;20054;-66
2021/11/12 09:17:28;;;;;;;20.42;12.68;;;4.60;99.90;;;;;;4994304;28;20034;-66
2021/11/12 09:20:16;;;;;;;20.48;13.18;;;4.60;99.90;;;;;;4985012;28;20068;-66
2021/11/12 09:22:43;;;;;;;23.45;14.13;;;4.60;99.90;;;;;;4987885;28;20080;-66
2021/11/12 09:25:12;;;;;;;21.35;13.65;;;4.60;99.90;;;;;;4995643;28;20038;-66
2021/11/12 09:27:40;;;;;;;20.63;12.80;;;4.60;99.90;;;;;;5004245;28;20072;-67
2021/11/12 09:30:09;;;;;;;22.60;14.52;;;4.60;99.90;;;;;;4995147;28;20038;-66
2021/11/12 09:32:37;;;;;;;22.17;13.65;;;4.70;99.90;;;;;;4994459;28;20071;-65
2021/11/12 09:35:05;;;;;;;24.60;14.30;;;4.70;99.90;;;;;;4995659;28;20039;-66
2021/11/12 09:37:35;;;;;;;22.63;12.73;;;4.70;99.90;;;;;;4979509;28;20042;-66
2021/11/12 09:40:04;;;;;;;22.25;12.45;;;4.80;99.90;;;;;;4988039;28;20298;-66
2021/11/12 09:42:33;;;;;;;23.70;14.30;;;4.90;99.90;;;;;;4981682;28;20046;-66
2021/11/12 09:45:04;;;;;;;22.45;13.50;;;5.00;99.90;;;;;;4988725;28;20066;-66
2021/11/12 09:47:32;;;;;;;19.42;12.80;;;5.00;99.90;;;;;;4986615;28;20074;-67
2021/11/12 09:50:03;;;;;;;21.52;13.25;;;4.90;99.90;;;;;;4989484;28;20409;-66
2021/11/12 09:52:31;;;;;;;18.67;12.13;;;4.90;99.90;;;;;;4991366;28;20055;-67
2021/11/12 09:55:00;;;;;;;21.23;13.18;;;4.90;99.90;;;;;;4990970;28;20820;-66
2021/11/12 09:57:27;;;;;;;19.45;11.93;;;5.00;99.90;;;;;;4990852;28;20038;-66
2021/11/12 09:59:58;;;;;;;20.60;13.00;;;5.00;99.90;;;;;;4993949;28;20521;-66
2021/11/12 10:02:30;;;;;;;23.75;13.48;;;5.20;99.90;;;;;;4999540;28;20046;-67
2021/11/12 10:04:59;;;;;;;21.98;12.88;;;5.20;99.90;;;;;;5002232;28;20046;-67
2021/11/12 10:07:34;;;;;;;22.75;12.25;;;5.30;99.90;;;;;;5004473;28;20073;-66
2021/11/12 10:10:11;;;;;;;17.63;11.48;;;5.30;99.90;;;;;;5000518;28;20038;-67
2021/11/12 10:12:41;;;;;;;20.75;12.05;;;5.30;99.90;;;;;;4999470;28;20521;-67
2021/11/12 10:15:16;;;;;;;16.55;11.43;;;5.40;99.90;;;;;;4990258;28;20042;-66
2021/11/12 10:17:46;;;;;;;20.55;12.45;;;5.40;99.90;;;;;;4998064;28;20050;-68
2021/11/12 10:20:17;;;;;;;20.63;12.65;;;5.40;99.90;;;;;;4999659;28;20057;-66
2021/11/12 10:22:47;;;;;;;18.30;11.38;;;5.50;99.90;;;;;;4988375;28;20057;-66
2021/11/12 10:25:15;;;;;;;23.17;13.27;;;5.50;99.90;;;;;;4999110;28;20042;-66
2021/11/12 10:27:50;;;;;;;20.45;12.57;;;5.60;99.90;;;;;;5006534;28;20057;-67
2021/11/12 10:30:24;;;;;;;21.23;12.57;;;5.60;99.90;;;;;;4999038;28;20125;-67
2021/11/12 10:32:57;;;;;;;21.75;13.07;;;5.50;99.90;;;;;;4999080;28;20054;-67
2021/11/12 10:35:27;;;;;;;22.83;13.77;;;5.60;99.90;;;;;;4991759;28;20118;-67
2021/11/12 10:38:05;;;;;;;20.40;12.25;;;5.60;99.90;;;;;;4999506;28;20042;-67
2021/11/12 10:40:33;;;;;;;22.73;12.85;;;5.50;99.90;;;;;;4986578;28;20053;-66
2021/11/12 10:43:00;;;;;;;22.05;12.23;;;5.50;99.90;;;;;;4999136;28;20038;-65
2021/11/12 10:45:31;;;;;;;23.48;13.00;;;5.60;99.90;;;;;;4996720;28;20161;-66
2021/11/12 10:48:02;;;;;;;23.80;13.95;;;5.60;99.90;;;;;;5000341;28;20118;-67
2021/11/12 10:50:33;;;;;;;20.15;12.52;;;5.60;99.90;;;;;;5003799;28;20038;-66
2021/11/12 10:53:14;;;;;;;20.88;12.48;;;5.70;99.90;;;;;;4998736;28;20069;-66
2021/11/12 10:55:53;;;;;;;21.38;13.10;;;5.80;99.90;;;;;;4991533;28;20056;-67
2021/11/12 10:58:21;;;;;;;21.33;13.05;;;5.80;99.90;;;;;;4982931;28;20057;-67
2021/11/12 11:00:50;;;;;;;19.85;11.57;;;5.90;99.90;;;;;;4997737;28;20073;-68
2021/11/12 11:03:20;;;;;;;23.17;11.93;;;5.80;99.90;;;;;;5006540;28;20034;-66
2021/11/12 11:05:55;;;;;;;18.60;11.40;;;5.80;99.90;;;;;;5003089;28;20465;-67
2021/11/12 11:08:28;;;;;;;18.52;11.20;;;5.80;99.90;;;;;;4998944;28;20050;-66
2021/11/12 11:11:00;;;;;;;19.13;10.30;;;5.80;99.90;;;;;;5002674;28;20581;-67
2021/11/12 11:13:30;;;;;;;19.55;12.00;;;5.70;99.90;;;;;;4983047;28;20437;-67
2021/11/12 11:16:01;;;;;;;22.23;11.65;;;5.80;99.90;;;;;;4985345;28;20080;-67
2021/11/12 11:18:37;;;;;;;18.55;11.38;;;5.80;99.90;;;;;;4987309;28;20062;-67
2021/11/12 11:21:13;;;;;;;21.70;11.60;;;5.90;99.90;;;;;;5008572;28;20500;-67
2021/11/12 11:23:42;;;;;;;20.02;11.98;;;5.90;99.90;;;;;;5008035;28;20181;-67
2021/11/12 11:26:21;;;;;;;18.60;12.02;;;5.90;99.90;;;;;;5004986;28;20390;-65
2021/11/12 11:28:51;;;;;;;20.73;13.00;;;5.80;99.90;;;;;;4964121;28;20069;-66
2021/11/12 11:31:22;;;;;;;21.20;12.50;;;5.60;99.90;;;;;;4990165;28;20042;-66
2021/11/12 11:33:51;;;;;;;18.75;11.35;;;5.50;99.90;;;;;;4994574;28;20050;-67
2021/11/12 11:36:23;;;;;;;18.02;11.00;;;5.50;99.90;;;;;;4994409;28;20046;-67
2021/11/12 11:38:53;;;;;;;19.23;11.70;;;5.60;99.90;;;;;;4995177;28;20469;-67
2021/11/12 11:41:23;;;;;;;17.08;10.52;;;5.70;99.90;;;;;;4993533;28;20133;-66
2021/11/12 11:43:52;;;;;;;17.67;11.55;;;5.80;99.90;;;;;;4997977;28;20057;-66
2021/11/12 11:46:24;;;;;;;17.02;10.98;;;5.70;99.90;;;;;;4991412;28;20046;-67
2021/11/12 11:48:53;;;;;;;18.35;11.45;;;5.70;99.90;;;;;;5002812;28;20046;-67
2021/11/12 11:52:00;;;;;;;17.45;11.90;;;5.70;99.90;;;;;;5002029;28;20034;-67
2021/11/12 11:54:34;;;;;;;22.67;13.52;;;5.80;99.90;;;;;;4965414;28;20494;-66
2021/11/12 11:57:12;;;;;;;21.67;12.55;;;5.90;99.90;;;;;;4953956;28;20497;-66
2021/11/12 11:59:41;;;;;;;22.33;12.80;;;5.90;99.90;;;;;;4970909;28;20058;-67
2021/11/12 12:02:20;;;;;;;20.73;12.45;;;6.00;99.90;;;;;;4970088;28;20127;-66
2021/11/12 12:04:57;;;;;;;19.88;12.02;;;6.10;99.90;;;;;;4963434;28;20042;-66
2021/11/12 12:07:30;;;;;;;18.33;12.23;;;6.10;99.90;;;;;;4955719;28;20194;-66
2021/11/12 12:10:14;;;;;;;21.80;14.15;;;6.20;99.90;;;;;;4950546;28;20065;-66
2021/11/12 12:12:47;;;;;;;18.95;12.13;;;6.10;99.90;;;;;;4955503;28;20470;-66
2021/11/12 12:15:28;;;;;;;19.25;11.73;;;6.20;99.90;;;;;;4965231;28;20110;-67
2021/11/12 12:18:15;;;;;;;20.10;12.70;;;6.30;99.90;;;;;;4966196;28;20046;-66
2021/11/12 12:21:18;;;;;;;21.20;13.88;;;6.30;99.90;;;;;;4967055;28;20053;-66
2021/11/12 12:35:49;;;;;;;22.90;13.65;;;6.30;99.90;;;;;;4980153;28;20046;-65
2021/11/12 12:42:30;;;;;;;19.75;12.27;;;6.20;99.90;;;;;;4961809;28;20070;-65
2021/11/12 13:21:45;;;;;;;21.88;13.20;;;6.00;99.90;;;;;;4963301;28;20047;-64
2021/11/12 13:24:39;;;;;;;22.77;13.52;;;5.90;99.90;;;;;;4968700;28;20042;-65
2021/11/12 13:27:11;;;;;;;18.33;12.60;;;5.80;99.90;;;;;;4969181;28;20055;-66
2021/11/12 13:29:42;;;;;;;20.65;13.13;;;5.80;99.90;;;;;;4965277;28;20058;-66
2021/11/12 13:32:09;;;;;;;22.17;13.52;;;5.70;99.90;;;;;;4984327;28;20088;-65
2021/11/12 13:34:43;;;;;;;20.90;13.65;;;5.80;99.90;;;;;;4982291;28;20074;-66
2021/11/12 13:37:15;;;;;;;21.67;13.52;;;5.80;99.90;;;;;;4979135;28;20564;-65
2021/11/12 13:39:44;;;;;;;21.00;13.10;;;5.80;99.90;;;;;;4979445;28;20599;-66
2021/11/12 13:42:11;;;;;;;19.75;12.68;;;5.90;99.90;;;;;;4987498;28;20057;-65
2021/11/12 13:44:40;;;;;;;21.90;12.55;;;5.90;99.90;;;;;;4973665;28;20539;-65
2021/11/12 13:47:11;;;;;;;21.63;12.73;;;5.90;99.90;;;;;;4973319;28;20560;-65
2021/11/12 13:49:42;;;;;;;20.70;12.68;;;5.90;99.90;;;;;;4995302;28;20122;-65
2021/11/12 13:52:14;;;;;;;20.08;12.90;;;5.90;99.90;;;;;;4996496;28;20038;-65
2021/11/12 13:54:54;;;;;;;22.52;13.30;;;5.90;99.90;;;;;;4976707;28;20047;-65
2021/11/12 13:57:24;;;;;;;16.85;10.75;;;5.90;99.90;;;;;;4989153;28;20122;-65
2021/11/12 13:59:59;;;;;;;20.35;11.95;;;6.00;99.90;;;;;;4991909;28;20050;-65
2021/11/12 14:02:28;;;;;;;22.83;12.65;;;5.90;99.90;;;;;;5000801;28;20065;-65
2021/11/12 14:05:12;;;;;;;20.23;12.68;;;5.90;99.90;;;;;;5005835;28;20133;-68
2021/11/12 14:07:40;;;;;;;18.30;11.38;;;5.90;99.90;;;;;;4998200;28;20046;-65
2021/11/12 14:10:13;;;;;;;18.15;11.65;;;5.90;99.90;;;;;;5007338;28;20563;-66
2021/11/12 14:12:55;;;;;;;19.10;12.75;;;6.00;99.90;;;;;;4999831;28;20056;-66
2021/11/12 14:15:28;;;;;;;20.83;12.90;;;6.00;99.90;;;;;;4998061;28;20049;-66
2021/11/12 14:18:21;;;;;;;21.55;12.82;;;5.90;99.90;;;;;;4998859;28;20078;-66
2021/11/12 14:37:53;;;;;;;28.90;17.92;;;5.90;99.90;;;;;;5000343;28;20058;-66
2021/11/12 14:40:52;;;;;;;25.60;15.07;;;5.90;99.90;;;;;;4994712;28;20042;-65
2021/11/12 14:45:57;;;;;;;22.80;14.52;;;5.80;99.90;;;;;;4996084;28;20485;-67
2021/11/12 14:48:35;;;;;;;24.70;15.77;;;5.80;99.90;;;;;;4991586;28;20062;-65
2021/11/12 14:51:10;;;;;;;20.80;13.75;;;5.70;99.90;;;;;;4980353;28;20051;-66
2021/11/12 14:53:48;;;;;;;26.33;15.10;;;5.70;99.90;;;;;;4995458;28;20146;-66
2021/11/12 14:56:29;;;;;;;23.08;14.38;;;5.70;99.90;;;;;;4994475;28;20518;-66
2021/11/12 14:59:03;;;;;;;25.17;15.45;;;5.60;99.90;;;;;;4992592;28;20145;-66
2021/11/12 15:01:33;;;;;;;23.92;14.98;;;5.60;99.90;;;;;;4993848;28;20051;-66
2021/11/12 15:04:01;;;;;;;25.05;15.80;;;5.60;99.90;;;;;;4993010;28;20500;-66
2021/11/12 15:06:28;;;;;;;24.60;15.57;;;5.60;99.90;;;;;;4991944;28;20046;-67
2021/11/12 15:11:28;;;;;;;27.27;16.63;;;5.60;99.90;;;;;;4992548;28;20429;-66
2021/11/12 15:14:06;;;;;;;26.42;14.93;;;5.60;99.90;;;;;;4993342;28;20042;-65
2021/11/12 15:16:40;;;;;;;25.63;16.17;;;5.60;99.90;;;;;;4992042;28;20042;-67
2021/11/12 15:19:12;;;;;;;26.95;16.05;;;5.60;99.90;;;;;;5007759;28;20051;-66
2021/11/12 15:29:48;;;;;;;23.73;14.85;;;5.60;99.90;;;;;;4987321;28;20035;-67
2021/11/12 15:32:29;;;;;;;26.77;16.35;;;5.60;99.90;;;;;;4980782;28;20039;-66
2021/11/12 15:35:03;;;;;;;28.92;16.35;;;5.60;99.90;;;;;;4993647;28;20200;-66
2021/11/12 15:40:11;;;;;;;29.15;17.92;;;5.60;99.90;;;;;;5005169;28;20038;-66
2021/11/12 15:50:54;;;;;;;30.52;18.02;;;5.50;99.90;;;;;;5009227;28;20056;-66
2021/11/12 16:09:30;;;;;;;28.77;18.20;;;5.40;99.90;;;;;;4990506;28;20142;-65
2021/11/12 16:12:19;;;;;;;29.77;18.38;;;5.40;99.90;;;;;;4992227;28;20129;-65
2021/11/12 16:25:36;;;;;;;29.85;18.58;;;5.40;99.90;;;;;;4916036;29;20333;-65
2021/11/12 16:28:05;;;;;;;34.63;20.33;;;5.40;99.90;;;;;;4908717;29;20611;-66
2021/11/12 16:30:35;;;;;;;37.25;21.30;;;5.40;99.90;;;;;;4914526;29;20050;-65
2021/11/12 16:33:05;;;;;;;34.75;20.92;;;5.50;99.90;;;;;;4916917;29;20564;-66
2021/11/12 16:35:35;;;;;;;35.05;21.30;;;5.50;99.90;;;;;;4890055;29;20055;-66
2021/11/12 16:38:13;;;;;;;31.02;19.05;;;5.50;99.90;;;;;;4917274;29;20452;-66
2021/11/12 16:40:43;;;;;;;34.33;19.95;;;5.60;99.90;;;;;;4913377;29;20051;-66
2021/11/12 16:43:31;;;;;;;33.45;19.45;;;5.50;99.90;;;;;;4917185;29;20052;-66
2021/11/12 16:46:25;;;;;;;33.38;19.90;;;5.60;99.90;;;;;;4906774;29;20053;-67
2021/11/12 17:11:55;;;;;;;32.85;20.10;;;5.50;99.90;;;;;;4996722;28;20061;-68
2021/11/12 17:15:15;;;;;;;36.00;20.45;;;5.40;99.90;;;;;;5006762;28;20189;-67
2021/11/12 17:47:25;;;;;;;40.10;21.38;;;5.50;99.90;;;;;;4990754;28;20082;-70
2021/11/12 18:03:38;;;;;;;37.53;21.38;;;5.40;99.90;;;;;;4998781;28;20038;-69
2021/11/12 18:06:16;;;;;;;35.95;21.10;;;5.40;99.90;;;;;;5013446;28;20193;-70
2021/11/12 21:45:14;;;;;;;38.58;20.02;;;4.60;99.90;;;;;;4995900;28;20046;-69
2021/11/12 21:47:48;;;;;;;35.85;19.25;;;4.70;99.90;;;;;;4995978;28;20386;-68
2021/11/12 21:50:18;;;;;;;33.72;18.55;;;4.60;99.90;;;;;;4994856;28;20050;-68
2021/11/12 21:52:47;;;;;;;38.95;18.67;;;4.60;99.90;;;;;;4993165;28;20042;-69
2021/11/12 21:55:15;;;;;;;39.22;21.10;;;4.60;99.90;;;;;;4993958;28;20129;-67
2021/11/12 21:57:42;;;;;;;36.47;18.60;;;4.60;99.90;;;;;;4995171;28;20134;-68
2021/11/12 22:00:12;;;;;;;35.20;18.52;;;4.60;99.90;;;;;;4994741;28;20070;-69
2021/11/12 22:02:39;;;;;;;36.00;18.52;;;4.50;99.90;;;;;;4997164;28;20054;-67
2021/11/12 22:05:07;;;;;;;37.97;19.70;;;4.50;99.90;;;;;;4994912;28;20042;-68
2021/11/12 22:07:36;;;;;;;38.47;20.30;;;4.50;99.90;;;;;;4995389;28;20065;-69
2021/11/12 22:10:06;;;;;;;38.22;20.25;;;4.40;99.90;;;;;;5000668;28;20056;-69
2021/11/12 22:12:36;;;;;;;39.33;20.33;;;4.30;99.90;;;;;;4971596;28;20050;-69
2021/11/12 22:15:06;;;;;;;39.95;20.25;;;4.30;99.90;;;;;;4999094;28;20273;-67
2021/11/12 22:17:37;;;;;;;39.78;20.38;;;4.30;99.90;;;;;;4999291;28;20054;-69
2021/11/12 22:20:10;;;;;;;37.03;18.52;;;4.30;99.90;;;;;;5001096;28;20065;-69
2021/11/12 22:22:38;;;;;;;37.80;20.45;;;4.20;99.90;;;;;;5000169;28;20470;-68
2021/11/12 22:25:06;;;;;;;37.22;19.52;;;4.20;99.90;;;;;;4998283;28;20619;-69
2021/11/12 22:27:34;;;;;;;40.42;20.45;;;4.20;99.90;;;;;;4998492;28;20038;-68
2021/11/12 22:30:05;;;;;;;39.20;19.85;;;4.20;99.90;;;;;;4995609;28;20037;-69
2021/11/12 22:32:33;;;;;;;34.53;18.38;;;4.20;99.90;;;;;;4987969;28;20051;-69
2021/11/12 22:35:01;;;;;;;35.65;18.88;;;4.30;99.90;;;;;;4998036;28;20053;-68
2021/11/12 22:37:29;;;;;;;39.55;19.42;;;4.30;99.90;;;;;;4989913;28;20069;-68
2021/11/12 22:39:56;;;;;;;38.33;19.30;;;4.40;99.90;;;;;;4997964;28;20132;-68
2021/11/12 22:42:24;;;;;;;37.80;19.30;;;4.40;99.90;;;;;;5000899;28;20042;-68
2021/11/12 22:44:54;;;;;;;36.58;18.73;;;4.40;99.90;;;;;;4998015;28;20051;-67
2021/11/12 22:47:21;;;;;;;41.05;20.02;;;4.40;99.90;;;;;;5002239;28;20073;-67
2021/11/12 22:49:49;;;;;;;42.15;21.27;;;4.50;99.90;;;;;;4993869;28;20058;-69
2021/11/12 22:52:16;;;;;;;44.58;23.23;;;4.40;99.90;;;;;;4997655;28;20049;-69
2021/11/12 22:54:47;;;;;;;41.17;20.98;;;4.40;99.90;;;;;;4995441;28;20456;-68
2021/11/12 22:57:16;;;;;;;48.08;24.42;;;4.40;99.90;;;;;;5009292;28;20452;-69